createdAt,value
2024-03-06T00:02:05.361Z,97317.86
2024-03-06T00:05:07.252Z,97316.92
2024-03-06T00:08:12.357Z,97315.19
2024-03-06T00:11:14.476Z,97315.17
2024-03-06T00:14:17.414Z,97315.27
2024-03-06T00:17:20.278Z,97313.84
2024-03-06T00:20:23.434Z,97316.15
2024-03-06T00:23:26.274Z,97315.62
2024-03-06T00:26:28.313Z,97318.38
2024-03-06T00:29:33.112Z,97312.85
2024-03-06T00:32:36.457Z,97312.86
2024-03-06T00:35:38.440Z,97311.14
2024-03-06T00:38:40.397Z,97312.75
2024-03-06T00:41:42.353Z,97312.98
2024-03-06T00:44:44.356Z,97320.20
2024-03-06T00:47:46.398Z,97320.21
2024-03-06T00:50:48.409Z,97318.25
2024-03-06T00:53:50.384Z,97318.02
2024-03-06T00:56:55.419Z,97317.30
2024-03-06T00:59:57.444Z,97316.65
2024-03-06T01:02:59.440Z,97321.78
2024-03-06T01:06:01.414Z,97320.77
2024-03-06T01:09:05.466Z,97318.33
2024-03-06T01:12:07.403Z,97318.03
2024-03-06T01:15:09.584Z,97319.20
2024-03-06T01:18:11.543Z,97314.55
2024-03-06T01:21:13.511Z,97316.83
2024-03-06T01:24:16.451Z,97315.45
2024-03-06T01:27:19.445Z,97318.27
2024-03-06T01:30:22.444Z,97316.19
2024-03-06T01:33:24.489Z,97319.16
2024-03-06T01:36:26.499Z,97318.67
2024-03-06T01:39:28.474Z,97319.86
2024-03-06T01:42:32.475Z,97320.91
2024-03-06T01:45:34.509Z,97320.23
2024-03-06T01:48:40.569Z,97325.83
2024-03-06T01:51:42.503Z,97329.08
2024-03-06T01:54:45.836Z,97332.38
2024-03-06T01:57:48.554Z,97332.66
2024-03-06T02:00:50.609Z,97332.14
2024-03-06T02:03:52.534Z,97334.95
2024-03-06T02:06:56.561Z,97338.73
2024-03-06T02:09:58.640Z,97346.44
2024-03-06T02:13:00.651Z,97351.52
2024-03-06T02:16:03.649Z,97352.34
2024-03-06T02:19:11.690Z,97350.71
2024-03-06T02:22:13.658Z,97352.06
2024-03-06T02:25:16.691Z,97358.74
2024-03-06T02:28:19.608Z,97359.41
2024-03-06T02:31:23.604Z,97361.91
2024-03-06T02:34:26.662Z,97359.95
2024-03-06T02:37:28.699Z,97356.27
2024-03-06T02:40:30.664Z,97357.95
2024-03-06T02:43:33.746Z,97362.05
2024-03-06T02:46:35.713Z,97368.40
2024-03-06T02:49:37.807Z,97371.95
2024-03-06T02:52:39.823Z,97372.30
2024-03-06T02:55:41.734Z,97375.86
2024-03-06T02:58:45.765Z,97379.48
2024-03-06T03:01:47.753Z,97378.30
2024-03-06T03:04:49.789Z,97379.06
2024-03-06T03:07:52.879Z,97383.81
2024-03-06T03:10:54.813Z,97386.59
2024-03-06T03:13:56.774Z,97388.34
2024-03-06T03:16:59.771Z,97391.19
2024-03-06T03:20:02.780Z,97393.65
2024-03-06T03:23:04.777Z,97393.72
2024-03-06T03:26:06.785Z,97396.43
2024-03-06T03:29:08.803Z,97395.75
2024-03-06T03:32:12.903Z,97398.52
2024-03-06T03:35:14.886Z,97401.02
2024-03-06T03:38:16.865Z,97398.98
2024-03-06T03:41:25.815Z,97402.64
2024-03-06T03:44:32.844Z,97401.51
2024-03-06T03:47:34.944Z,97405.98
2024-03-06T03:50:37.824Z,97407.23
2024-03-06T03:53:39.814Z,97410.63
2024-03-06T03:56:41.921Z,97413.59
2024-03-06T03:59:45.887Z,97410.08
2024-03-06T04:02:48.928Z,97414.17
2024-03-06T04:05:50.925Z,97416.66
2024-03-06T04:08:52.856Z,97417.59
2024-03-06T04:11:54.900Z,97417.16
2024-03-06T04:14:57.843Z,97417.08
2024-03-06T04:18:00.941Z,97420.15
2024-03-06T04:21:02.867Z,97423.11
2024-03-06T04:24:05.980Z,97430.02
2024-03-06T04:27:07.887Z,97435.45
2024-03-06T04:30:09.940Z,97435.59
2024-03-06T04:33:14.111Z,97435.09
2024-03-06T04:36:19.923Z,97441.55
2024-03-06T04:39:22.990Z,97438.98
2024-03-06T04:42:26.962Z,97442.77
2024-03-06T04:45:33.953Z,97442.80
2024-03-06T04:48:36.030Z,97443.83
2024-03-06T04:51:38.004Z,97444.32
2024-03-06T04:54:39.991Z,97441.04
2024-03-06T04:57:42.177Z,97440.23
2024-03-06T05:00:44.056Z,97439.52
2024-03-06T06:00:19.345Z,97467.89
2024-03-06T06:03:23.375Z,97466.58
2024-03-06T06:06:31.123Z,97463.12
2024-03-06T06:09:26.149Z,97464.73
2024-03-06T06:12:28.259Z,97465.97
2024-03-06T06:15:31.162Z,97470.40
2024-03-06T06:18:33.193Z,97474.96
2024-03-06T06:21:36.283Z,97472.20
2024-03-06T06:24:38.258Z,97475.38
2024-03-06T06:27:40.287Z,97470.71
2024-03-06T06:30:42.242Z,97471.87
2024-03-06T06:33:46.830Z,97470.90
2024-03-06T06:37:01.301Z,97467.08
2024-03-06T06:40:03.262Z,97463.80
2024-03-06T06:43:05.277Z,97465.77
2024-03-06T06:46:07.222Z,97463.45
2024-03-06T06:49:09.299Z,97465.98
2024-03-06T06:52:12.175Z,97472.21
2024-03-06T06:55:14.429Z,97472.46
2024-03-06T06:58:16.353Z,97468.69
2024-03-06T07:01:18.332Z,97467.86
2024-03-06T07:04:24.365Z,97469.27
2024-03-06T07:07:26.371Z,97470.54
2024-03-06T07:10:28.352Z,97467.21
2024-03-06T07:13:34.381Z,97474.08
2024-03-06T07:16:36.346Z,97475.27
2024-03-06T07:19:38.471Z,97473.52
2024-03-06T07:22:42.421Z,97468.19
2024-03-06T07:25:44.477Z,97464.98
2024-03-06T07:28:46.386Z,97467.77
2024-03-06T07:31:48.326Z,97466.69
2024-03-06T07:34:50.358Z,97470.79
2024-03-06T07:37:52.456Z,97473.08
2024-03-06T07:40:54.481Z,97475.35
2024-03-06T07:43:56.466Z,97474.86
2024-03-06T07:47:02.416Z,97476.73
2024-03-06T07:50:05.574Z,97478.04
2024-03-06T07:53:27.525Z,97479.53
2024-03-06T07:56:31.485Z,97481.86
2024-03-06T07:59:32.571Z,97481.20
2024-03-06T08:02:33.551Z,97480.92
2024-03-06T08:05:34.521Z,97479.11
2024-03-06T08:08:37.020Z,97484.64
2024-03-06T08:11:37.564Z,97487.37
2024-03-06T08:14:38.536Z,97485.42
2024-03-06T08:17:40.536Z,97483.41
2024-03-06T08:20:41.646Z,97483.35
2024-03-06T08:23:42.712Z,97478.38
2024-03-06T08:26:44.604Z,97480.40
2024-03-06T08:29:47.568Z,97483.09
2024-03-06T08:32:51.716Z,97480.80
2024-03-06T08:35:54.642Z,97481.72
2024-03-06T08:38:55.588Z,97486.19
2024-03-06T08:41:56.790Z,97490.85
2024-03-06T08:44:58.524Z,97490.17
2024-03-06T08:48:01.685Z,97493.74
2024-03-06T08:51:02.575Z,97493.38
2024-03-06T08:54:06.747Z,97495.60
2024-03-06T08:57:07.767Z,97491.30
2024-03-06T09:00:12.323Z,97491.48
2024-03-06T09:03:13.635Z,97492.06
2024-03-06T09:06:19.194Z,97491.88
2024-03-06T09:09:22.633Z,97490.39
2024-03-06T09:12:24.659Z,97482.80
2024-03-06T09:15:27.698Z,97482.92
2024-03-06T09:18:31.704Z,97484.86
2024-03-06T09:21:33.678Z,97481.10
2024-03-06T09:24:39.716Z,97483.21
2024-03-06T09:27:40.715Z,97480.76
2024-03-06T09:30:43.695Z,97483.56
2024-03-06T09:33:44.730Z,97484.64
2024-03-06T09:36:46.693Z,97483.20
2024-03-06T09:39:47.757Z,97486.38
2024-03-06T09:42:51.352Z,97487.17
2024-03-06T09:45:52.782Z,97484.61
2024-03-06T09:49:02.811Z,97484.89
2024-03-06T09:52:03.751Z,97481.20
2024-03-06T09:55:04.762Z,97479.98
2024-03-06T09:58:05.815Z,97483.71
2024-03-06T10:01:11.820Z,97488.64
2024-03-06T10:04:12.760Z,97488.52
2024-03-06T10:07:15.738Z,97484.80
2024-03-06T10:10:18.893Z,97482.88
2024-03-06T10:13:24.240Z,97476.89
2024-03-06T10:16:24.803Z,97479.40
2024-03-06T10:19:40.834Z,97475.38
2024-03-06T10:22:42.941Z,97479.54
2024-03-06T10:25:44.798Z,97474.98
2024-03-06T10:28:46.965Z,97472.23
2024-03-06T10:31:48.821Z,97468.27
2024-03-06T10:34:50.003Z,97465.14
2024-03-06T10:37:53.162Z,97459.85
2024-03-06T10:40:55.858Z,97458.08
2024-03-06T10:44:03.949Z,97456.57
2024-03-06T10:47:12.858Z,97452.27
2024-03-06T10:50:17.961Z,97455.36
2024-03-06T10:53:22.682Z,97454.95
2024-03-06T10:56:27.428Z,97454.92
2024-03-06T10:59:32.079Z,97451.79
2024-03-06T11:02:36.943Z,97452.00
2024-03-06T11:05:38.032Z,97453.50
2024-03-06T11:08:42.125Z,97452.34
2024-03-06T11:11:46.037Z,97455.26
2024-03-06T11:14:46.996Z,97458.02
2024-03-06T11:17:48.959Z,97460.23
2024-03-06T11:20:50.053Z,97460.92
2024-03-06T11:24:29.057Z,97461.80
2024-03-06T11:27:30.987Z,97464.45
2024-03-06T11:30:34.997Z,97463.42
2024-03-06T11:33:37.452Z,97462.95
2024-03-06T11:36:45.099Z,97461.27
2024-03-06T11:39:53.105Z,97458.35
2024-03-06T11:42:56.991Z,97452.42
2024-03-06T11:45:59.023Z,97453.48
2024-03-06T11:49:14.046Z,97451.30
2024-03-06T11:52:20.377Z,97451.27
2024-03-06T11:55:23.159Z,97448.08
2024-03-06T11:58:24.132Z,97449.69
2024-03-06T12:01:26.158Z,97449.95
2024-03-06T12:04:29.206Z,97446.98
2024-03-06T12:07:31.083Z,97446.23
2024-03-06T12:10:33.113Z,97446.08
2024-03-06T12:13:34.282Z,97446.92
2024-03-06T12:16:35.216Z,97449.11
2024-03-06T12:19:36.095Z,97446.49
2024-03-06T12:22:42.360Z,97447.05
2024-03-06T12:25:54.829Z,97452.65
2024-03-06T12:29:05.582Z,97458.43
2024-03-06T12:32:07.534Z,97458.88
2024-03-06T12:35:13.161Z,97462.74
2024-03-06T12:38:15.191Z,97464.63
2024-03-06T12:41:18.248Z,97470.71
2024-03-06T12:44:19.282Z,97473.20
2024-03-06T12:47:26.045Z,97473.96
2024-03-06T12:50:33.381Z,97474.02
2024-03-06T12:53:36.526Z,97477.78
2024-03-06T12:56:38.305Z,97481.23
2024-03-06T12:59:39.250Z,97480.92
2024-03-06T13:02:40.384Z,97483.25
2024-03-06T13:05:41.455Z,97483.65
2024-03-06T13:08:43.292Z,97486.55
2024-03-06T13:11:45.512Z,97484.12
2024-03-06T13:14:46.368Z,97482.54
2024-03-06T13:17:48.401Z,97483.46
2024-03-06T13:20:49.387Z,97484.15
2024-03-06T13:23:50.372Z,97482.73
2024-03-06T13:26:51.538Z,97483.69
2024-03-06T13:29:52.403Z,97482.74
2024-03-06T13:32:53.438Z,97476.71
2024-03-06T13:35:57.745Z,97472.75
2024-03-06T13:39:00.517Z,97467.43
2024-03-06T13:42:01.488Z,97465.67
2024-03-06T13:45:02.458Z,97461.45
2024-03-06T13:48:03.567Z,97458.88
2024-03-06T13:51:05.449Z,97458.71
2024-03-06T13:54:06.484Z,97449.29
2024-03-06T13:57:09.403Z,97446.23
2024-03-06T14:00:11.391Z,97447.69
2024-03-06T14:03:12.418Z,97447.92
2024-03-06T14:06:15.448Z,97445.38
2024-03-06T14:09:16.489Z,97446.27
2024-03-06T14:12:17.589Z,97442.87
2024-03-06T14:15:20.371Z,97437.55
2024-03-06T14:18:22.475Z,97434.03
2024-03-06T14:21:23.465Z,97433.90
2024-03-06T14:24:24.467Z,97432.58
2024-03-06T14:27:26.421Z,97433.83
2024-03-06T14:30:28.539Z,97433.28
2024-03-06T14:33:30.001Z,97436.78
2024-03-06T14:36:34.510Z,97436.30
2024-03-06T14:39:35.727Z,97436.58
2024-03-06T14:42:37.532Z,97431.70
2024-03-06T14:45:38.568Z,97434.50
2024-03-06T14:48:39.676Z,97428.77
2024-03-06T14:51:40.467Z,97421.24
2024-03-06T14:54:44.236Z,97415.01
2024-03-06T14:57:45.660Z,97414.67
2024-03-06T15:00:46.674Z,97410.61
2024-03-06T15:03:47.492Z,97409.81
2024-03-06T15:06:48.620Z,97407.76
2024-03-06T15:09:49.547Z,97407.27
2024-03-06T15:12:51.374Z,97409.24
2024-03-06T15:15:54.628Z,97415.32
2024-03-06T15:18:57.429Z,97415.95
2024-03-06T15:21:58.644Z,97414.42
2024-03-06T15:24:59.543Z,97412.98
2024-03-06T15:28:00.586Z,97414.02
2024-03-06T15:31:01.607Z,97413.41
2024-03-06T15:34:02.651Z,97419.21
2024-03-06T15:37:04.645Z,97412.52
2024-03-06T15:40:08.657Z,97413.05
2024-03-06T15:43:09.652Z,97415.32
2024-03-06T15:46:10.629Z,97416.96
2024-03-06T15:49:11.646Z,97417.31
2024-03-06T15:52:13.497Z,97419.14
2024-03-06T15:55:14.699Z,97417.52
2024-03-06T15:58:17.998Z,97421.77
2024-03-06T16:01:18.772Z,97421.05
2024-03-06T16:04:20.001Z,97417.83
2024-03-06T16:07:23.683Z,97416.77
2024-03-06T16:10:24.793Z,97418.91
2024-03-06T16:13:26.708Z,97422.38
2024-03-06T16:16:28.717Z,97422.11
2024-03-06T16:19:37.759Z,97419.20
2024-03-06T16:22:41.705Z,97419.04
2024-03-06T16:25:42.748Z,97419.70
2024-03-06T16:28:43.780Z,97422.71
2024-03-06T16:31:44.753Z,97420.84
2024-03-06T16:34:47.772Z,97416.77
2024-03-06T16:37:48.716Z,97421.99
2024-03-06T16:40:49.755Z,97421.34
2024-03-06T16:43:50.765Z,97419.45
2024-03-06T16:46:55.042Z,97418.52
2024-03-06T16:49:57.788Z,97420.84
2024-03-06T16:52:58.826Z,97421.63
2024-03-06T16:56:00.883Z,97422.97
2024-03-06T16:59:01.833Z,97421.29
2024-03-06T17:02:03.922Z,97424.67
2024-03-06T17:05:05.882Z,97429.50
2024-03-06T17:08:13.849Z,97432.67
2024-03-06T17:11:18.986Z,97432.05
2024-03-06T17:14:21.855Z,97434.03
2024-03-06T17:17:25.906Z,97433.61
2024-03-06T17:20:28.882Z,97430.36
2024-03-06T17:23:31.857Z,97435.08
2024-03-06T17:26:33.992Z,97434.17
2024-03-06T17:29:35.948Z,97439.41
2024-03-06T17:32:40.980Z,97434.86
2024-03-06T17:35:43.000Z,97436.77
2024-03-06T17:38:46.014Z,97434.48
2024-03-06T17:41:47.978Z,97435.46
2024-03-06T17:44:50.006Z,97433.21
2024-03-06T17:47:52.129Z,97431.95
2024-03-06T17:50:55.082Z,97431.59
2024-03-06T17:53:58.914Z,97430.10
2024-03-06T17:57:02.976Z,97430.91
2024-03-06T18:00:05.062Z,97428.99
2024-03-06T18:03:09.980Z,97431.06
2024-03-06T18:06:11.968Z,97431.98
2024-03-06T18:09:22.933Z,97428.11
2024-03-06T18:12:25.102Z,97424.30
2024-03-06T18:15:27.034Z,97424.17
2024-03-06T18:18:29.085Z,97421.15
2024-03-06T18:21:31.037Z,97421.55
2024-03-06T18:24:34.070Z,97421.60
2024-03-06T18:27:36.011Z,97421.34
2024-03-06T18:30:39.003Z,97422.59
2024-03-06T18:33:41.287Z,97423.88
2024-03-06T18:36:44.077Z,97425.61
2024-03-06T18:39:46.177Z,97422.12
2024-03-06T18:42:48.034Z,97421.77
2024-03-06T18:45:50.088Z,97419.83
2024-03-06T18:48:52.094Z,97425.30
2024-03-06T18:52:01.083Z,97426.61
2024-03-06T18:55:05.108Z,97423.86
2024-03-06T18:58:07.097Z,97428.61
2024-03-06T19:01:09.095Z,97428.84
2024-03-06T19:04:12.177Z,97431.48
2024-03-06T19:07:14.100Z,97425.81
2024-03-06T19:10:16.233Z,97425.17
2024-03-06T19:13:18.169Z,97428.36
2024-03-06T19:16:20.131Z,97425.62
2024-03-06T19:19:23.119Z,97430.08
2024-03-06T19:22:25.209Z,97429.24
2024-03-06T19:25:30.148Z,97427.70
2024-03-06T19:28:33.180Z,97431.45
2024-03-06T19:31:36.279Z,97431.52
2024-03-06T19:34:38.149Z,97424.36
2024-03-06T19:37:42.261Z,97421.98
2024-03-06T19:40:44.190Z,97424.26
2024-03-06T19:43:47.188Z,97428.33
2024-03-06T19:46:49.172Z,97429.20
2024-03-06T19:49:51.239Z,97432.80
2024-03-06T19:52:57.200Z,97427.86
2024-03-06T19:55:59.216Z,97423.06
2024-03-06T19:59:01.230Z,97422.72
2024-03-06T20:02:03.316Z,97420.41
2024-03-06T20:05:05.461Z,97416.93
2024-03-06T20:08:11.328Z,97414.45
2024-03-06T20:11:14.509Z,97418.89
2024-03-06T20:14:17.350Z,97416.38
2024-03-06T20:17:21.344Z,97416.88
2024-03-06T20:20:24.286Z,97419.14
2024-03-06T20:23:27.326Z,97418.83
2024-03-06T20:26:34.434Z,97418.84
2024-03-06T20:29:36.364Z,97423.66
2024-03-06T20:32:38.388Z,97423.50
2024-03-06T20:35:40.361Z,97424.89
2024-03-06T20:38:42.427Z,97424.88
2024-03-06T20:41:47.496Z,97421.30
2024-03-06T20:44:50.434Z,97419.85
2024-03-06T20:47:53.470Z,97420.13
2024-03-06T20:50:55.658Z,97418.93
2024-03-06T20:53:57.398Z,97415.58
2024-03-06T20:57:00.508Z,97419.67
2024-03-06T21:00:02.599Z,97417.15
2024-03-06T21:03:05.391Z,97421.17
2024-03-06T21:06:07.570Z,97420.16
2024-03-06T21:09:09.522Z,97420.90
2024-03-06T21:12:12.486Z,97423.20
2024-03-06T21:15:15.486Z,97426.88
2024-03-06T21:18:20.554Z,97430.53
2024-03-06T21:21:23.482Z,97426.34
2024-03-06T21:24:25.509Z,97426.03
2024-03-06T21:27:28.456Z,97431.31
2024-03-06T21:30:30.517Z,97427.77
2024-03-06T21:33:32.489Z,97429.69
2024-03-06T21:36:34.524Z,97429.45
2024-03-06T21:39:36.565Z,97430.40
2024-03-06T21:42:39.522Z,97432.56
2024-03-06T21:45:42.497Z,97430.96
2024-03-06T21:48:45.649Z,97434.33
2024-03-06T21:51:50.591Z,97434.06
2024-03-06T21:54:53.548Z,97432.91
2024-03-06T21:57:55.513Z,97434.69
2024-03-06T22:00:57.532Z,97432.84
2024-03-06T22:03:59.515Z,97433.34
2024-03-06T22:07:01.672Z,97429.64
2024-03-06T22:10:03.596Z,97433.84
2024-03-06T22:13:05.606Z,97435.77
2024-03-06T22:16:07.664Z,97436.45
2024-03-06T22:19:09.609Z,97435.22
2024-03-06T22:22:11.589Z,97434.70
2024-03-06T22:25:14.640Z,97433.14
2024-03-06T22:28:19.574Z,97431.23
2024-03-06T22:31:21.659Z,97429.97
2024-03-06T22:34:23.674Z,97429.14
2024-03-06T22:37:27.697Z,97427.95
2024-03-06T22:40:29.624Z,97427.54
2024-03-06T22:43:31.675Z,97426.77
2024-03-06T22:46:44.099Z,97428.45
2024-03-06T22:49:52.623Z,97429.42
2024-03-06T22:52:55.713Z,97429.05
2024-03-06T22:55:57.715Z,97430.14
2024-03-06T22:58:59.692Z,97429.13
2024-03-06T23:02:05.699Z,97427.06
2024-03-06T23:05:09.848Z,97427.29
2024-03-06T23:08:11.804Z,97424.74
2024-03-06T23:11:16.908Z,97429.30
2024-03-06T23:14:19.804Z,97429.61
2024-03-06T23:17:22.822Z,97428.30
2024-03-06T23:20:24.935Z,97427.63
2024-03-06T23:23:27.991Z,97427.45
2024-03-06T23:26:29.791Z,97426.76
2024-03-06T23:29:31.844Z,97426.77
2024-03-06T23:32:33.766Z,97432.70
2024-03-06T23:35:35.850Z,97430.73
2024-03-06T23:38:39.839Z,97429.84
2024-03-06T23:41:41.897Z,97433.13
2024-03-06T23:44:43.883Z,97432.78
2024-03-06T23:47:46.112Z,97434.40
2024-03-06T23:50:47.873Z,97433.83
2024-03-06T23:53:49.842Z,97435.91
2024-03-06T23:56:52.996Z,97438.66
2024-03-06T23:59:55.893Z,97442.42
